createdAt,value
2018-10-19T00:01:12.931Z,8.20
2018-10-19T00:03:41.115Z,8.30
2018-10-19T00:06:09.733Z,8.30
2018-10-19T00:08:37.937Z,8.30
2018-10-19T00:11:06.407Z,8.40
2018-10-19T00:13:34.533Z,8.40
2018-10-19T00:16:02.736Z,8.40
2018-10-19T00:18:30.910Z,8.40
2018-10-19T00:20:59.129Z,8.40
2018-10-19T00:23:27.573Z,8.50
2018-10-19T00:25:55.764Z,8.50
2018-10-19T00:28:23.950Z,8.50
2018-10-19T00:30:52.151Z,8.50
2018-10-19T00:33:20.377Z,8.50
2018-10-19T00:35:48.803Z,8.40
2018-10-19T00:38:17.007Z,8.40
2018-10-19T00:40:45.199Z,8.30
2018-10-19T00:43:13.620Z,8.30
2018-10-19T00:45:46.779Z,8.30
2018-10-19T00:48:19.127Z,8.20
2018-10-19T00:50:47.610Z,8.20
2018-10-19T00:53:16.064Z,8.10
2018-10-19T00:55:44.591Z,8.00
2018-10-19T00:58:12.792Z,7.90
2018-10-19T01:00:41.855Z,7.80
2018-10-19T01:03:10.392Z,7.70
2018-10-19T01:05:39.522Z,7.60
2018-10-19T01:08:08.511Z,7.60
2018-10-19T01:10:36.707Z,7.60
2018-10-19T01:13:05.111Z,7.60
2018-10-19T01:15:33.355Z,7.50
2018-10-19T01:18:01.597Z,7.50
2018-10-19T01:20:29.985Z,7.50
2018-10-19T01:22:58.187Z,7.50
2018-10-19T01:25:26.867Z,7.50
2018-10-19T01:27:55.070Z,7.60
2018-10-19T01:30:26.643Z,7.60
2018-10-19T01:32:55.103Z,7.60
2018-10-19T01:35:23.270Z,7.50
2018-10-19T01:37:51.690Z,7.50
2018-10-19T01:40:19.892Z,7.50
2018-10-19T01:42:48.310Z,7.50
2018-10-19T01:45:16.524Z,7.50
2018-10-19T01:47:44.753Z,7.50
2018-10-19T01:50:12.996Z,7.50
2018-10-19T01:52:41.468Z,7.50
2018-10-19T01:55:09.668Z,7.50
2018-10-19T01:57:38.093Z,7.50
2018-10-19T02:00:06.442Z,7.50
2018-10-19T02:02:34.677Z,7.50
2018-10-19T02:05:02.904Z,7.40
2018-10-19T02:07:31.064Z,7.40
2018-10-19T02:09:59.255Z,7.40
2018-10-19T02:12:27.489Z,7.40
2018-10-19T02:14:55.738Z,7.40
2018-10-19T02:17:23.899Z,7.30
2018-10-19T02:19:52.086Z,7.20
2018-10-19T02:22:20.279Z,7.20
2018-10-19T02:24:48.459Z,7.20
2018-10-19T02:27:16.710Z,7.10
2018-10-19T02:29:44.834Z,7.20
2018-10-19T02:32:13.030Z,7.10
2018-10-19T02:34:41.255Z,7.10
2018-10-19T02:37:09.447Z,7.10
2018-10-19T02:39:37.667Z,7.10
2018-10-19T02:42:05.874Z,7.10
2018-10-19T02:44:34.286Z,7.10
2018-10-19T02:47:02.494Z,7.10
2018-10-19T02:49:30.894Z,7.00
2018-10-19T02:51:59.090Z,6.90
2018-10-19T02:54:27.321Z,6.90
2018-10-19T02:56:55.592Z,6.80
2018-10-19T02:59:23.789Z,6.70
2018-10-19T03:01:52.221Z,6.60
2018-10-19T03:04:20.410Z,6.60
2018-10-19T03:06:48.614Z,6.50
2018-10-19T03:09:17.332Z,6.50
2018-10-19T03:11:45.501Z,6.50
2018-10-19T03:14:13.678Z,6.40
2018-10-19T03:16:41.862Z,6.40
2018-10-19T03:19:10.050Z,6.40
2018-10-19T03:21:38.242Z,6.40
2018-10-19T03:24:06.470Z,6.30
2018-10-19T03:26:34.644Z,6.30
2018-10-19T03:29:02.950Z,6.20
2018-10-19T03:31:31.138Z,6.20
2018-10-19T03:33:59.352Z,6.20
2018-10-19T03:36:27.789Z,6.10
2018-10-19T03:38:56.009Z,6.10
2018-10-19T03:41:24.213Z,6.10
2018-10-19T03:43:52.408Z,6.10
2018-10-19T03:46:20.683Z,6.10
2018-10-19T03:48:49.102Z,6.10
2018-10-19T03:51:17.625Z,6.10
2018-10-19T03:53:45.975Z,6.10
2018-10-19T03:56:14.226Z,6.10
2018-10-19T03:58:42.417Z,6.10
2018-10-19T04:01:10.607Z,6.10
2018-10-19T04:03:38.928Z,6.10
2018-10-19T04:06:07.062Z,6.10
2018-10-19T04:08:35.273Z,6.10
2018-10-19T04:11:03.522Z,6.10
2018-10-19T04:13:31.677Z,6.10
2018-10-19T04:15:59.877Z,6.10
2018-10-19T04:18:28.299Z,6.10
2018-10-19T04:20:56.556Z,6.00
2018-10-19T04:23:24.702Z,6.00
2018-10-19T04:25:52.915Z,6.00
2018-10-19T04:28:21.144Z,6.00
2018-10-19T04:30:49.359Z,6.00
2018-10-19T04:33:17.627Z,6.00
2018-10-19T04:35:45.790Z,6.00
2018-10-19T04:38:13.990Z,6.00
2018-10-19T04:40:42.186Z,5.90
2018-10-19T04:43:10.635Z,5.90
2018-10-19T04:45:38.836Z,5.70
2018-10-19T04:48:07.031Z,5.60
2018-10-19T04:50:35.238Z,5.50
2018-10-19T04:53:03.490Z,5.40
2018-10-19T04:55:31.672Z,5.30
2018-10-19T04:58:00.979Z,5.20
2018-10-19T05:00:29.212Z,5.20
2018-10-19T05:02:57.453Z,5.10
2018-10-19T05:05:25.718Z,5.10
2018-10-19T05:07:53.928Z,5.20
2018-10-19T05:10:22.129Z,5.20
2018-10-19T05:12:50.324Z,5.20
2018-10-19T05:15:18.522Z,5.10
2018-10-19T05:17:46.754Z,5.10
2018-10-19T05:20:15.273Z,5.00
2018-10-19T05:22:43.598Z,5.00
2018-10-19T05:25:12.653Z,4.90
2018-10-19T05:27:40.831Z,5.00
2018-10-19T05:30:12.739Z,5.00
2018-10-19T05:32:41.906Z,5.10
2018-10-19T05:35:10.159Z,5.10
2018-10-19T05:37:39.347Z,5.10
2018-10-19T05:40:08.846Z,5.10
2018-10-19T05:42:37.196Z,5.10
2018-10-19T05:45:07.734Z,5.10
2018-10-19T05:47:35.927Z,5.10
2018-10-19T05:50:04.971Z,5.10
2018-10-19T05:52:33.085Z,5.10
2018-10-19T05:55:01.288Z,5.10
2018-10-19T05:57:29.479Z,5.10
2018-10-19T05:59:57.897Z,5.10
2018-10-19T06:02:26.244Z,5.10
2018-10-19T06:04:54.344Z,5.10
2018-10-19T06:07:22.509Z,5.00
2018-10-19T06:09:51.017Z,5.00
2018-10-19T06:12:19.290Z,5.00
2018-10-19T06:14:47.513Z,5.00
2018-10-19T06:17:15.991Z,5.00
2018-10-19T06:19:44.201Z,5.10
2018-10-19T06:22:12.410Z,5.10
2018-10-19T06:24:40.609Z,5.20
2018-10-19T06:27:08.813Z,5.30
2018-10-19T06:29:37.014Z,5.30
2018-10-19T06:32:05.867Z,5.30
2018-10-19T06:34:34.078Z,5.30
2018-10-19T06:37:02.277Z,5.30
2018-10-19T06:39:30.500Z,5.40
2018-10-19T06:41:58.697Z,5.50
2018-10-19T06:44:26.934Z,5.60
2018-10-19T06:46:55.401Z,5.70
2018-10-19T06:49:23.630Z,5.80
2018-10-19T06:51:51.791Z,5.90
2018-10-19T06:54:20.414Z,6.10
2018-10-19T06:56:48.618Z,6.30
2018-10-19T06:59:16.843Z,6.40
2018-10-19T07:01:44.990Z,6.50
2018-10-19T07:04:13.214Z,6.70
2018-10-19T07:06:41.407Z,6.80
2018-10-19T07:09:09.592Z,7.00
2018-10-19T07:11:37.783Z,7.10
2018-10-19T07:14:06.037Z,7.30
2018-10-19T07:16:34.155Z,7.40
2018-10-19T07:19:02.431Z,7.60
2018-10-19T07:21:31.002Z,7.80
2018-10-19T07:23:59.182Z,8.00
2018-10-19T07:26:27.421Z,8.20
2018-10-19T07:28:55.604Z,8.40
2018-10-19T07:31:23.783Z,8.50
2018-10-19T07:33:52.432Z,8.70
2018-10-19T07:36:20.654Z,8.90
2018-10-19T07:38:49.327Z,9.10
2018-10-19T07:41:17.730Z,9.30
2018-10-19T07:43:46.143Z,9.50
2018-10-19T07:46:14.392Z,9.70
2018-10-19T07:48:42.570Z,9.80
2018-10-19T07:51:10.767Z,10.00
2018-10-19T07:53:38.946Z,10.00
2018-10-19T07:56:07.449Z,10.20
2018-10-19T07:58:35.574Z,10.30
2018-10-19T08:01:03.827Z,10.50
2018-10-19T08:03:32.765Z,10.80
2018-10-19T08:06:01.187Z,10.80
2018-10-19T08:08:29.475Z,11.00
2018-10-19T08:10:57.753Z,11.30
2018-10-19T08:13:25.964Z,11.60
2018-10-19T08:15:54.239Z,12.20
2018-10-19T08:18:22.419Z,13.10
2018-10-19T08:20:50.617Z,14.00
2018-10-19T08:23:18.811Z,14.50
2018-10-19T08:25:47.049Z,14.80
2018-10-19T08:28:15.222Z,14.80
2018-10-19T08:30:44.465Z,15.00
2018-10-19T08:33:12.721Z,15.40
2018-10-19T08:35:40.917Z,15.90
2018-10-19T08:38:09.145Z,16.50
2018-10-19T08:40:37.381Z,17.10
2018-10-19T08:43:06.161Z,17.70
2018-10-19T08:45:34.575Z,18.10
2018-10-19T08:48:02.767Z,18.60
2018-10-19T08:50:30.951Z,18.90
2018-10-19T08:52:59.402Z,19.30
2018-10-19T08:55:27.805Z,19.60
2018-10-19T08:57:56.300Z,19.70
2018-10-19T09:00:24.655Z,20.40
2018-10-19T09:02:53.066Z,20.90
2018-10-19T09:05:21.460Z,21.20
2018-10-19T09:07:49.874Z,21.30
2018-10-19T09:10:18.055Z,21.30
2018-10-19T09:12:46.257Z,21.20
2018-10-19T09:15:14.483Z,22.00
2018-10-19T09:17:43.731Z,22.00
2018-10-19T09:20:11.993Z,22.00
2018-10-19T09:22:40.202Z,22.20
2018-10-19T09:25:08.470Z,22.50
2018-10-19T09:27:36.933Z,22.60
2018-10-19T09:30:06.467Z,22.50
2018-10-19T09:32:34.705Z,22.90
2018-10-19T09:35:02.982Z,23.10
2018-10-19T09:37:31.359Z,23.60
2018-10-19T09:39:59.608Z,23.80
2018-10-19T09:42:27.775Z,24.20
2018-10-19T09:44:56.004Z,24.60
2018-10-19T09:47:24.234Z,24.80
2018-10-19T09:49:52.506Z,25.20
2018-10-19T09:52:20.729Z,25.50
2018-10-19T09:54:48.985Z,25.70
2018-10-19T09:57:17.251Z,25.90
2018-10-19T09:59:45.502Z,25.80
2018-10-19T10:02:13.720Z,25.50
2018-10-19T10:04:41.953Z,24.70
2018-10-19T10:07:10.178Z,24.40
2018-10-19T10:09:38.359Z,24.40
2018-10-19T10:12:06.584Z,24.90
2018-10-19T10:14:34.788Z,25.50
2018-10-19T10:17:03.083Z,26.10
2018-10-19T10:19:31.231Z,26.30
2018-10-19T10:21:59.450Z,26.70
2018-10-19T10:24:27.634Z,26.40
2018-10-19T10:26:55.893Z,26.30
2018-10-19T10:29:24.113Z,26.50
2018-10-19T10:31:52.385Z,26.80
2018-10-19T10:34:20.610Z,26.80
2018-10-19T10:36:51.102Z,26.80
2018-10-19T10:39:20.092Z,26.80
2018-10-19T10:41:48.230Z,27.30
2018-10-19T10:44:16.439Z,27.50
2018-10-19T10:46:44.677Z,28.20
2018-10-19T10:49:12.892Z,27.80
2018-10-19T10:51:41.099Z,27.60
2018-10-19T10:54:09.315Z,27.60
2018-10-19T10:56:37.746Z,27.60
2018-10-19T10:59:05.959Z,27.50
2018-10-19T11:01:34.386Z,27.40
2018-10-19T11:04:02.628Z,27.60
2018-10-19T11:06:30.794Z,27.90
2018-10-19T11:08:59.070Z,28.20
2018-10-19T11:11:27.293Z,28.70
2018-10-19T11:13:55.503Z,28.50
2018-10-19T11:16:23.960Z,28.40
2018-10-19T11:18:52.229Z,28.90
2018-10-19T11:21:20.438Z,28.20
2018-10-19T11:23:48.695Z,27.70
2018-10-19T11:26:16.848Z,28.10
2018-10-19T11:28:45.081Z,28.40
2018-10-19T11:31:13.392Z,27.60
2018-10-19T11:33:41.510Z,27.50
2018-10-19T11:36:09.978Z,27.90
2018-10-19T11:38:38.167Z,28.60
2018-10-19T11:41:06.351Z,28.30
2018-10-19T11:43:34.551Z,28.30
2018-10-19T11:46:02.748Z,27.80
2018-10-19T11:48:30.937Z,28.70
2018-10-19T11:50:59.110Z,28.50
2018-10-19T11:53:27.307Z,27.50
2018-10-19T11:55:55.524Z,28.30
2018-10-19T11:58:23.968Z,28.90
2018-10-19T12:00:52.197Z,29.50
2018-10-19T12:03:20.468Z,29.50
2018-10-19T12:05:48.653Z,28.10
2018-10-19T12:08:16.846Z,28.30
2018-10-19T12:10:45.116Z,27.70
2018-10-19T12:13:13.296Z,27.70
2018-10-19T12:15:41.402Z,28.60
2018-10-19T12:18:09.625Z,29.20
2018-10-19T12:20:37.815Z,30.00
2018-10-19T12:23:06.253Z,29.50
2018-10-19T12:25:34.435Z,29.30
2018-10-19T12:28:02.615Z,30.00
2018-10-19T12:30:30.798Z,29.20
2018-10-19T12:32:59.234Z,29.70
2018-10-19T12:35:27.624Z,29.90
2018-10-19T12:37:55.829Z,29.60
2018-10-19T12:40:24.341Z,29.70
2018-10-19T12:42:52.531Z,29.50
2018-10-19T12:46:32.104Z,29.70
2018-10-19T12:49:00.342Z,28.20
2018-10-19T12:51:28.510Z,28.70
2018-10-19T12:53:56.760Z,28.70
2018-10-19T12:56:24.974Z,29.10
2018-10-19T12:58:53.998Z,29.30
2018-10-19T13:01:23.237Z,28.90
2018-10-19T13:03:51.452Z,28.90
2018-10-19T13:06:19.643Z,29.50
2018-10-19T13:08:48.061Z,29.70
2018-10-19T13:11:17.092Z,29.70
2018-10-19T13:13:45.503Z,29.50
2018-10-19T13:16:13.718Z,29.10
2018-10-19T13:18:41.906Z,28.10
2018-10-19T13:21:10.163Z,28.40
2018-10-19T13:23:38.520Z,28.10
2018-10-19T13:26:06.728Z,28.20
2018-10-19T13:28:34.911Z,27.80
2018-10-19T13:31:03.162Z,27.40
2018-10-19T13:33:31.346Z,26.60
2018-10-19T13:36:00.376Z,25.00
2018-10-19T13:38:28.771Z,23.50
2018-10-19T13:40:57.006Z,22.80
2018-10-19T13:43:25.448Z,22.10
2018-10-19T13:45:53.822Z,21.70
2018-10-19T13:48:22.574Z,21.70
2018-10-19T13:50:50.795Z,22.00
2018-10-19T13:53:19.243Z,22.30
2018-10-19T13:55:47.435Z,22.50
2018-10-19T13:58:15.879Z,22.30
2018-10-19T14:00:44.066Z,22.00
2018-10-19T14:03:12.371Z,21.60
2018-10-19T14:05:41.125Z,21.40
2018-10-19T14:08:09.406Z,21.10
2018-10-19T14:10:37.649Z,20.80
2018-10-19T14:13:06.151Z,20.60
2018-10-19T14:15:34.348Z,20.40
2018-10-19T14:18:02.657Z,20.20
2018-10-19T14:20:30.852Z,19.90
2018-10-19T14:22:59.048Z,19.70
2018-10-19T14:25:27.215Z,19.60
2018-10-19T14:27:55.406Z,19.50
2018-10-19T14:30:23.611Z,19.40
2018-10-19T14:32:51.835Z,19.20
2018-10-19T14:35:20.218Z,19.00
2018-10-19T14:37:48.385Z,19.00
2018-10-19T14:40:18.269Z,18.70
2018-10-19T14:42:46.989Z,18.60
2018-10-19T14:45:15.992Z,18.80
2018-10-19T14:47:45.094Z,19.00
2018-10-19T14:50:14.629Z,19.00
2018-10-19T14:52:42.811Z,18.90
2018-10-19T14:55:12.874Z,18.70
2018-10-19T14:57:41.078Z,18.50
2018-10-19T15:00:11.796Z,18.40
2018-10-19T15:02:40.003Z,18.20
2018-10-19T15:05:09.857Z,18.00
2018-10-19T15:07:38.397Z,17.70
2018-10-19T15:10:10.013Z,17.50
2018-10-19T15:12:38.433Z,17.30
2018-10-19T15:15:06.898Z,17.10
2018-10-19T15:17:35.047Z,16.90
2018-10-19T15:20:03.689Z,16.70
2018-10-19T15:22:31.907Z,16.60
2018-10-19T15:25:00.239Z,16.40
2018-10-19T15:27:28.446Z,16.30
2018-10-19T15:29:56.878Z,16.10
2018-10-19T15:32:25.109Z,16.00
2018-10-19T15:34:54.157Z,15.80
2018-10-19T15:37:22.504Z,15.60
2018-10-19T15:39:50.732Z,17.40
2018-10-19T15:42:18.957Z,15.30
2018-10-19T15:44:47.272Z,15.20
2018-10-19T15:47:15.481Z,15.10
2018-10-19T15:49:43.667Z,15.00
2018-10-19T15:52:11.864Z,14.80
2018-10-19T15:54:40.047Z,14.60
2018-10-19T15:57:08.263Z,14.50
2018-10-19T15:59:36.638Z,14.40
2018-10-19T16:02:05.054Z,14.20
2018-10-19T16:04:33.491Z,14.10
2018-10-19T16:07:01.690Z,14.00
2018-10-19T16:09:30.111Z,13.90
2018-10-19T16:11:58.353Z,13.70
2018-10-19T16:14:26.551Z,13.60
2018-10-19T16:16:54.731Z,13.50
2018-10-19T16:19:22.929Z,13.40
2018-10-19T16:21:51.120Z,13.20
2018-10-19T16:24:19.359Z,13.10
2018-10-19T16:26:47.551Z,13.00
2018-10-19T16:29:15.862Z,12.80
2018-10-19T16:31:44.096Z,12.70
2018-10-19T16:34:12.271Z,12.60
2018-10-19T16:36:40.494Z,12.50
2018-10-19T16:39:09.620Z,12.30
2018-10-19T16:41:37.755Z,12.20
2018-10-19T16:44:05.963Z,12.10
2018-10-19T16:46:34.371Z,12.00
2018-10-19T16:49:02.567Z,11.90
2018-10-19T16:51:30.760Z,11.80
2018-10-19T16:53:59.019Z,11.70
2018-10-19T16:56:27.243Z,11.70
2018-10-19T16:58:55.711Z,11.60
2018-10-19T17:01:24.067Z,11.50
2018-10-19T17:03:52.243Z,11.40
2018-10-19T17:06:20.435Z,11.30
2018-10-19T17:08:48.613Z,11.20
2018-10-19T17:11:17.030Z,11.10
2018-10-19T17:13:45.218Z,11.00
2018-10-19T17:16:13.623Z,10.90
2018-10-19T17:18:41.806Z,10.90
2018-10-19T17:21:10.052Z,10.80
2018-10-19T17:23:38.203Z,10.70
2018-10-19T17:26:06.943Z,10.60
2018-10-19T17:28:35.135Z,10.60
2018-10-19T17:31:03.496Z,10.50
2018-10-19T17:33:31.671Z,10.40
2018-10-19T17:35:59.978Z,10.30
2018-10-19T17:38:28.186Z,10.20
2018-10-19T17:40:56.419Z,10.20
2018-10-19T17:43:24.983Z,10.10
2018-10-19T17:45:53.322Z,10.00
2018-10-19T17:48:21.726Z,10.00
2018-10-19T17:50:49.961Z,9.90
2018-10-19T17:53:18.147Z,9.90
2018-10-19T17:55:46.321Z,9.80
2018-10-19T17:58:14.499Z,9.70
2018-10-19T18:00:42.946Z,9.60
2018-10-19T18:03:11.210Z,9.60
2018-10-19T18:05:39.306Z,9.50
2018-10-19T18:08:07.478Z,9.40
2018-10-19T18:10:35.659Z,9.30
2018-10-19T18:13:04.550Z,9.30
2018-10-19T18:15:32.816Z,9.20
2018-10-19T18:18:01.174Z,9.10
2018-10-19T18:20:29.356Z,9.00
2018-10-19T18:22:57.570Z,9.00
2018-10-19T18:25:25.938Z,8.90
2018-10-19T18:27:54.160Z,8.80
2018-10-19T18:30:22.330Z,8.70
2018-10-19T18:32:50.548Z,8.60
2018-10-19T18:35:18.756Z,8.60
2018-10-19T18:37:46.907Z,8.50
2018-10-19T18:40:15.290Z,8.50
2018-10-19T18:42:43.476Z,8.40
2018-10-19T18:45:11.875Z,8.40
2018-10-19T18:47:40.097Z,8.30
2018-10-19T18:50:08.900Z,8.30
2018-10-19T18:52:37.483Z,8.30
2018-10-19T18:55:05.742Z,8.20
2018-10-19T18:57:34.137Z,8.20
2018-10-19T19:00:02.318Z,8.20
2018-10-19T19:02:30.544Z,8.10
2018-10-19T19:04:58.969Z,8.10
2018-10-19T19:07:27.363Z,8.00
2018-10-19T19:10:00.882Z,7.90
2018-10-19T19:12:29.322Z,7.80
2018-10-19T19:14:57.486Z,7.80
2018-10-19T19:17:25.709Z,7.70
2018-10-19T19:19:59.063Z,7.70
2018-10-19T19:22:27.280Z,7.70
2018-10-19T19:25:01.052Z,7.70
2018-10-19T19:27:29.513Z,7.70
2018-10-19T19:29:57.693Z,7.70
2018-10-19T19:32:25.909Z,7.70
2018-10-19T19:34:54.125Z,7.70
2018-10-19T19:37:22.306Z,7.60
2018-10-19T19:39:50.474Z,7.50
2018-10-19T19:42:23.975Z,7.50
2018-10-19T19:44:52.146Z,7.40
2018-10-19T19:47:25.733Z,7.30
2018-10-19T19:49:58.207Z,7.20
2018-10-19T19:52:26.437Z,7.20
2018-10-19T19:54:54.614Z,7.10
2018-10-19T19:57:22.871Z,7.00
2018-10-19T19:59:51.311Z,7.00
2018-10-19T20:02:19.815Z,6.90
2018-10-19T20:04:48.024Z,6.80
2018-10-19T20:07:16.301Z,6.80
2018-10-19T20:09:44.599Z,6.80
2018-10-19T20:12:12.849Z,6.80
2018-10-19T20:14:41.037Z,6.70
2018-10-19T20:17:09.248Z,6.70
2018-10-19T20:19:37.391Z,6.70
2018-10-19T20:22:05.766Z,6.70
2018-10-19T20:24:34.267Z,6.70
2018-10-19T20:27:02.489Z,6.70
2018-10-19T20:29:30.804Z,6.70
2018-10-19T20:31:59.145Z,6.70
2018-10-19T20:34:27.465Z,6.60
2018-10-19T20:36:55.646Z,6.50
2018-10-19T20:39:23.886Z,6.50
2018-10-19T20:41:52.117Z,6.50
2018-10-19T20:44:20.316Z,6.50
2018-10-19T20:46:48.533Z,6.40
2018-10-19T20:49:16.754Z,6.40
2018-10-19T20:51:44.939Z,6.40
2018-10-19T20:54:13.176Z,6.40
2018-10-19T20:56:41.566Z,6.40
2018-10-19T20:59:09.834Z,6.30
2018-10-19T21:01:37.977Z,6.30
2018-10-19T21:04:06.342Z,6.30
2018-10-19T21:06:34.527Z,6.30
2018-10-19T21:09:02.758Z,6.20
2018-10-19T21:11:31.147Z,6.20
2018-10-19T21:13:59.379Z,6.10
2018-10-19T21:16:27.554Z,6.10
2018-10-19T21:18:55.830Z,5.90
2018-10-19T21:21:23.922Z,5.80
2018-10-19T21:23:52.111Z,5.80
2018-10-19T21:26:20.481Z,5.80
2018-10-19T21:28:48.670Z,5.80
2018-10-19T21:31:16.881Z,5.70
2018-10-19T21:33:45.067Z,5.70
2018-10-19T21:36:13.353Z,5.70
2018-10-19T21:38:41.511Z,5.70
2018-10-19T21:41:09.840Z,5.70
2018-10-19T21:43:37.950Z,5.70
2018-10-19T21:46:06.425Z,5.60
2018-10-19T21:48:34.846Z,5.60
2018-10-19T21:51:03.073Z,5.60
2018-10-19T21:53:31.250Z,5.50
2018-10-19T21:55:59.483Z,5.50
2018-10-19T21:58:27.854Z,5.40
2018-10-19T22:00:56.051Z,5.40
2018-10-19T22:03:24.234Z,5.40
2018-10-19T22:05:52.647Z,5.30
2018-10-19T22:08:20.840Z,5.30
2018-10-19T22:10:49.455Z,5.30
2018-10-19T22:13:17.655Z,5.30
2018-10-19T22:15:45.839Z,5.30
2018-10-19T22:18:14.233Z,5.20
2018-10-19T22:20:42.643Z,5.20
2018-10-19T22:23:11.091Z,5.10
2018-10-19T22:25:39.454Z,5.10
2018-10-19T22:28:07.636Z,5.00
2018-10-19T22:30:35.835Z,5.00
2018-10-19T22:33:04.031Z,4.90
2018-10-19T22:35:32.489Z,4.80
2018-10-19T22:38:00.655Z,4.80
2018-10-19T22:40:28.881Z,4.80
2018-10-19T22:42:57.065Z,4.70
2018-10-19T22:45:25.250Z,4.70
2018-10-19T22:47:53.487Z,4.60
2018-10-19T22:50:21.919Z,4.60
2018-10-19T22:52:50.097Z,4.60
2018-10-19T22:55:18.561Z,4.50
2018-10-19T22:57:46.726Z,4.50
2018-10-19T23:00:15.121Z,4.50
2018-10-19T23:02:43.515Z,4.40
2018-10-19T23:05:11.841Z,4.40
2018-10-19T23:07:39.971Z,4.30
2018-10-19T23:10:08.672Z,4.30
2018-10-19T23:12:36.886Z,4.30
2018-10-19T23:15:05.687Z,4.30
2018-10-19T23:17:33.881Z,4.30
2018-10-19T23:20:02.090Z,4.30
2018-10-19T23:22:30.252Z,4.30
2018-10-19T23:24:58.446Z,4.30
2018-10-19T23:27:26.574Z,4.30
2018-10-19T23:29:55.145Z,4.40
2018-10-19T23:32:23.302Z,4.40
2018-10-19T23:34:51.463Z,4.50
2018-10-19T23:37:19.626Z,4.40
2018-10-19T23:39:47.996Z,4.50
2018-10-19T23:42:16.161Z,4.50
2018-10-19T23:44:44.310Z,4.50
2018-10-19T23:47:12.544Z,4.50
2018-10-19T23:49:40.610Z,4.50
2018-10-19T23:52:08.767Z,4.50
2018-10-19T23:54:36.916Z,4.50
2018-10-19T23:57:05.115Z,4.50
2018-10-19T23:59:33.270Z,4.50
